sensor_id;sensor_type;location;lat;lon;timestamp;P1;durP1;ratioP1;P2;durP2;ratioP2
66384;SDS011;53426;55.872;37.462;2024-03-22T00:17:44;20.92;;;9.50;;
66384;SDS011;53426;55.872;37.462;2024-03-22T00:20:35;19.98;;;9.45;;
66384;SDS011;53426;55.872;37.462;2024-03-22T00:23:02;17.20;;;9.20;;
66384;SDS011;53426;55.872;37.462;2024-03-22T00:25:31;19.00;;;9.25;;
66384;SDS011;53426;55.872;37.462;2024-03-22T00:27:59;12.40;;;9.27;;
66384;SDS011;53426;55.872;37.462;2024-03-22T00:33:25;20.90;;;8.93;;
66384;SDS011;53426;55.872;37.462;2024-03-22T00:39:27;14.77;;;8.95;;
66384;SDS011;53426;55.872;37.462;2024-03-22T00:41:57;17.98;;;9.65;;
66384;SDS011;53426;55.872;37.462;2024-03-22T00:44:24;17.05;;;9.40;;
66384;SDS011;53426;55.872;37.462;2024-03-22T00:46:54;22.98;;;10.10;;
66384;SDS011;53426;55.872;37.462;2024-03-22T00:49:21;20.27;;;10.77;;
66384;SDS011;53426;55.872;37.462;2024-03-22T00:51:47;16.75;;;9.85;;
66384;SDS011;53426;55.872;37.462;2024-03-22T00:56:52;21.33;;;9.10;;
66384;SDS011;53426;55.872;37.462;2024-03-22T00:59:21;16.05;;;9.63;;
66384;SDS011;53426;55.872;37.462;2024-03-22T01:05:17;17.60;;;8.57;;
66384;SDS011;53426;55.872;37.462;2024-03-22T01:07:58;15.57;;;9.73;;
66384;SDS011;53426;55.872;37.462;2024-03-22T01:11:12;16.17;;;9.40;;
66384;SDS011;53426;55.872;37.462;2024-03-22T01:13:43;16.20;;;9.20;;
66384;SDS011;53426;55.872;37.462;2024-03-22T01:16:14;15.02;;;9.30;;
66384;SDS011;53426;55.872;37.462;2024-03-22T01:25:07;15.95;;;8.77;;
66384;SDS011;53426;55.872;37.462;2024-03-22T01:36:09;17.60;;;9.43;;
66384;SDS011;53426;55.872;37.462;2024-03-22T01:43:20;15.93;;;9.82;;
66384;SDS011;53426;55.872;37.462;2024-03-22T01:46:09;16.15;;;9.05;;
66384;SDS011;53426;55.872;37.462;2024-03-22T01:49:15;18.67;;;9.77;;
66384;SDS011;53426;55.872;37.462;2024-03-22T01:52:11;16.65;;;9.98;;
66384;SDS011;53426;55.872;37.462;2024-03-22T01:54:42;25.08;;;9.95;;
66384;SDS011;53426;55.872;37.462;2024-03-22T01:57:12;20.75;;;9.63;;
66384;SDS011;53426;55.872;37.462;2024-03-22T01:59:46;15.52;;;9.95;;
66384;SDS011;53426;55.872;37.462;2024-03-22T02:05:18;20.80;;;10.23;;
66384;SDS011;53426;55.872;37.462;2024-03-22T02:07:48;25.33;;;9.82;;
66384;SDS011;53426;55.872;37.462;2024-03-22T02:10:15;19.17;;;10.02;;
66384;SDS011;53426;55.872;37.462;2024-03-22T02:12:44;11.45;;;9.07;;
66384;SDS011;53426;55.872;37.462;2024-03-22T02:15:15;20.08;;;10.23;;
66384;SDS011;53426;55.872;37.462;2024-03-22T02:17:42;20.45;;;10.43;;
66384;SDS011;53426;55.872;37.462;2024-03-22T02:20:15;20.63;;;10.00;;
66384;SDS011;53426;55.872;37.462;2024-03-22T02:22:47;26.50;;;9.57;;
66384;SDS011;53426;55.872;37.462;2024-03-22T02:25:22;19.30;;;10.32;;
66384;SDS011;53426;55.872;37.462;2024-03-22T02:34:40;24.02;;;9.75;;
66384;SDS011;53426;55.872;37.462;2024-03-22T02:40:04;14.80;;;9.20;;
66384;SDS011;53426;55.872;37.462;2024-03-22T02:42:33;21.90;;;10.35;;
66384;SDS011;53426;55.872;37.462;2024-03-22T02:45:06;20.95;;;10.85;;
66384;SDS011;53426;55.872;37.462;2024-03-22T02:51:24;20.50;;;9.95;;
66384;SDS011;53426;55.872;37.462;2024-03-22T02:53:53;21.08;;;9.85;;
66384;SDS011;53426;55.872;37.462;2024-03-22T02:56:20;28.73;;;11.02;;
66384;SDS011;53426;55.872;37.462;2024-03-22T02:58:49;25.45;;;11.20;;
66384;SDS011;53426;55.872;37.462;2024-03-22T03:01:16;21.42;;;10.60;;
66384;SDS011;53426;55.872;37.462;2024-03-22T03:03:48;24.50;;;11.45;;
66384;SDS011;53426;55.872;37.462;2024-03-22T03:06:30;20.88;;;11.13;;
66384;SDS011;53426;55.872;37.462;2024-03-22T03:09:12;23.30;;;10.85;;
66384;SDS011;53426;55.872;37.462;2024-03-22T03:11:43;18.35;;;10.70;;
66384;SDS011;53426;55.872;37.462;2024-03-22T03:14:20;29.58;;;10.88;;
66384;SDS011;53426;55.872;37.462;2024-03-22T03:20:08;21.05;;;11.05;;
66384;SDS011;53426;55.872;37.462;2024-03-22T03:22:36;18.90;;;11.45;;
66384;SDS011;53426;55.872;37.462;2024-03-22T03:29:02;26.42;;;11.75;;
66384;SDS011;53426;55.872;37.462;2024-03-22T03:32:11;30.08;;;11.45;;
66384;SDS011;53426;55.872;37.462;2024-03-22T03:39:58;20.08;;;11.10;;
66384;SDS011;53426;55.872;37.462;2024-03-22T03:42:32;20.77;;;11.70;;
66384;SDS011;53426;55.872;37.462;2024-03-22T03:45:02;34.13;;;11.50;;
66384;SDS011;53426;55.872;37.462;2024-03-22T03:47:38;26.27;;;12.32;;
66384;SDS011;53426;55.872;37.462;2024-03-22T03:50:07;22.90;;;11.65;;
66384;SDS011;53426;55.872;37.462;2024-03-22T03:52:49;21.27;;;11.35;;
66384;SDS011;53426;55.872;37.462;2024-03-22T03:55:19;18.45;;;11.20;;
66384;SDS011;53426;55.872;37.462;2024-03-22T03:58:06;21.00;;;11.60;;
66384;SDS011;53426;55.872;37.462;2024-03-22T04:00:32;27.13;;;11.52;;
66384;SDS011;53426;55.872;37.462;2024-03-22T04:03:16;17.98;;;11.77;;
66384;SDS011;53426;55.872;37.462;2024-03-22T04:09:34;36.10;;;12.00;;
66384;SDS011;53426;55.872;37.462;2024-03-22T04:12:27;25.92;;;12.02;;
66384;SDS011;53426;55.872;37.462;2024-03-22T04:14:55;34.60;;;13.07;;
66384;SDS011;53426;55.872;37.462;2024-03-22T04:20:27;27.02;;;12.57;;
66384;SDS011;53426;55.872;37.462;2024-03-22T04:23:08;25.45;;;12.65;;
66384;SDS011;53426;55.872;37.462;2024-03-22T04:25:58;23.90;;;13.05;;
66384;SDS011;53426;55.872;37.462;2024-03-22T04:28:39;25.08;;;12.20;;
66384;SDS011;53426;55.872;37.462;2024-03-22T04:31:34;25.60;;;12.60;;
66384;SDS011;53426;55.872;37.462;2024-03-22T04:34:04;27.58;;;11.77;;
66384;SDS011;53426;55.872;37.462;2024-03-22T04:39:40;39.75;;;13.45;;
66384;SDS011;53426;55.872;37.462;2024-03-22T04:42:13;22.15;;;11.43;;
66384;SDS011;53426;55.872;37.462;2024-03-22T04:44:41;29.83;;;12.73;;
66384;SDS011;53426;55.872;37.462;2024-03-22T04:47:20;28.65;;;11.93;;
66384;SDS011;53426;55.872;37.462;2024-03-22T04:53:08;29.95;;;13.52;;
66384;SDS011;53426;55.872;37.462;2024-03-22T04:55:40;31.90;;;12.75;;
66384;SDS011;53426;55.872;37.462;2024-03-22T05:01:03;25.02;;;11.32;;
66384;SDS011;53426;55.872;37.462;2024-03-22T05:03:33;20.45;;;11.98;;
66384;SDS011;53426;55.872;37.462;2024-03-22T05:06:10;22.67;;;11.23;;
66384;SDS011;53426;55.872;37.462;2024-03-22T05:17:04;20.80;;;12.30;;
66384;SDS011;53426;55.872;37.462;2024-03-22T05:19:37;25.15;;;11.77;;
66384;SDS011;53426;55.872;37.462;2024-03-22T05:22:04;30.30;;;11.68;;
66384;SDS011;53426;55.872;37.462;2024-03-22T05:24:31;22.80;;;12.10;;
66384;SDS011;53426;55.872;37.462;2024-03-22T05:26:58;25.50;;;12.27;;
66384;SDS011;53426;55.872;37.462;2024-03-22T05:29:25;38.05;;;12.68;;
66384;SDS011;53426;55.872;37.462;2024-03-22T05:31:52;24.77;;;12.88;;
66384;SDS011;53426;55.872;37.462;2024-03-22T05:38:23;28.13;;;11.40;;
66384;SDS011;53426;55.872;37.462;2024-03-22T05:41:12;26.95;;;11.95;;
66384;SDS011;53426;55.872;37.462;2024-03-22T05:43:38;26.42;;;12.32;;
66384;SDS011;53426;55.872;37.462;2024-03-22T05:46:04;25.08;;;11.43;;
66384;SDS011;53426;55.872;37.462;2024-03-22T05:48:30;28.13;;;13.43;;
66384;SDS011;53426;55.872;37.462;2024-03-22T05:50:56;27.77;;;11.85;;
66384;SDS011;53426;55.872;37.462;2024-03-22T05:53:22;16.75;;;11.82;;
66384;SDS011;53426;55.872;37.462;2024-03-22T05:55:47;35.28;;;12.75;;
66384;SDS011;53426;55.872;37.462;2024-03-22T05:58:13;31.23;;;12.75;;
66384;SDS011;53426;55.872;37.462;2024-03-22T06:00:39;23.70;;;11.43;;
66384;SDS011;53426;55.872;37.462;2024-03-22T06:03:05;19.80;;;11.98;;
66384;SDS011;53426;55.872;37.462;2024-03-22T06:05:34;17.73;;;12.55;;
66384;SDS011;53426;55.872;37.462;2024-03-22T06:08:00;23.40;;;12.38;;
66384;SDS011;53426;55.872;37.462;2024-03-22T06:10:26;24.13;;;12.55;;
66384;SDS011;53426;55.872;37.462;2024-03-22T06:12:52;31.73;;;13.00;;
66384;SDS011;53426;55.872;37.462;2024-03-22T06:15:20;33.72;;;13.60;;
66384;SDS011;53426;55.872;37.462;2024-03-22T06:23:09;30.92;;;12.95;;
66384;SDS011;53426;55.872;37.462;2024-03-22T06:25:35;26.23;;;12.18;;
66384;SDS011;53426;55.872;37.462;2024-03-22T06:28:02;34.42;;;13.27;;
66384;SDS011;53426;55.872;37.462;2024-03-22T06:30:28;24.75;;;12.75;;
66384;SDS011;53426;55.872;37.462;2024-03-22T06:32:54;27.33;;;13.27;;
66384;SDS011;53426;55.872;37.462;2024-03-22T06:35:21;30.27;;;13.52;;
66384;SDS011;53426;55.872;37.462;2024-03-22T06:37:48;29.98;;;14.20;;
66384;SDS011;53426;55.872;37.462;2024-03-22T06:40:18;21.83;;;12.65;;
66384;SDS011;53426;55.872;37.462;2024-03-22T06:42:44;23.38;;;12.95;;
66384;SDS011;53426;55.872;37.462;2024-03-22T06:45:10;23.77;;;12.57;;
66384;SDS011;53426;55.872;37.462;2024-03-22T06:47:36;41.10;;;14.38;;
66384;SDS011;53426;55.872;37.462;2024-03-22T06:50:02;39.28;;;14.07;;
66384;SDS011;53426;55.872;37.462;2024-03-22T06:52:30;36.83;;;12.60;;
66384;SDS011;53426;55.872;37.462;2024-03-22T06:55:14;31.70;;;13.07;;
66384;SDS011;53426;55.872;37.462;2024-03-22T06:57:40;22.35;;;12.48;;
66384;SDS011;53426;55.872;37.462;2024-03-22T07:00:06;37.28;;;13.98;;
66384;SDS011;53426;55.872;37.462;2024-03-22T07:02:35;27.42;;;13.18;;
66384;SDS011;53426;55.872;37.462;2024-03-22T07:05:01;24.80;;;12.35;;
66384;SDS011;53426;55.872;37.462;2024-03-22T07:07:30;40.88;;;13.00;;
66384;SDS011;53426;55.872;37.462;2024-03-22T07:09:56;49.22;;;12.95;;
66384;SDS011;53426;55.872;37.462;2024-03-22T07:12:22;25.98;;;13.00;;
66384;SDS011;53426;55.872;37.462;2024-03-22T07:14:48;36.05;;;12.98;;
66384;SDS011;53426;55.872;37.462;2024-03-22T07:17:14;19.08;;;11.55;;
66384;SDS011;53426;55.872;37.462;2024-03-22T07:19:40;30.80;;;12.82;;
66384;SDS011;53426;55.872;37.462;2024-03-22T07:22:06;31.20;;;12.93;;
66384;SDS011;53426;55.872;37.462;2024-03-22T07:24:32;33.85;;;12.88;;
66384;SDS011;53426;55.872;37.462;2024-03-22T07:26:58;29.15;;;11.77;;
66384;SDS011;53426;55.872;37.462;2024-03-22T07:29:24;37.00;;;12.88;;
66384;SDS011;53426;55.872;37.462;2024-03-22T07:31:50;26.90;;;11.20;;
66384;SDS011;53426;55.872;37.462;2024-03-22T07:34:16;33.92;;;11.90;;
66384;SDS011;53426;55.872;37.462;2024-03-22T07:36:42;31.83;;;11.65;;
66384;SDS011;53426;55.872;37.462;2024-03-22T07:39:08;19.42;;;11.48;;
66384;SDS011;53426;55.872;37.462;2024-03-22T07:41:38;28.98;;;12.32;;
66384;SDS011;53426;55.872;37.462;2024-03-22T07:44:04;23.15;;;11.32;;
66384;SDS011;53426;55.872;37.462;2024-03-22T07:46:30;17.17;;;10.98;;
66384;SDS011;53426;55.872;37.462;2024-03-22T07:49:14;19.57;;;11.00;;
66384;SDS011;53426;55.872;37.462;2024-03-22T07:51:42;24.80;;;10.98;;
66384;SDS011;53426;55.872;37.462;2024-03-22T07:54:08;20.33;;;10.60;;
66384;SDS011;53426;55.872;37.462;2024-03-22T07:56:33;22.42;;;10.43;;
66384;SDS011;53426;55.872;37.462;2024-03-22T07:59:00;25.05;;;10.88;;
66384;SDS011;53426;55.872;37.462;2024-03-22T08:01:27;16.77;;;9.23;;
66384;SDS011;53426;55.872;37.462;2024-03-22T08:03:56;23.98;;;10.75;;
66384;SDS011;53426;55.872;37.462;2024-03-22T08:06:22;18.08;;;9.98;;
66384;SDS011;53426;55.872;37.462;2024-03-22T08:11:33;23.48;;;10.40;;
66384;SDS011;53426;55.872;37.462;2024-03-22T08:13:59;20.33;;;9.57;;
66384;SDS011;53426;55.872;37.462;2024-03-22T08:16:29;15.30;;;8.88;;
66384;SDS011;53426;55.872;37.462;2024-03-22T08:21:47;26.20;;;9.70;;
66384;SDS011;53426;55.872;37.462;2024-03-22T08:24:13;22.77;;;9.75;;
66384;SDS011;53426;55.872;37.462;2024-03-22T08:26:39;16.70;;;8.98;;
66384;SDS011;53426;55.872;37.462;2024-03-22T08:29:05;22.85;;;9.57;;
66384;SDS011;53426;55.872;37.462;2024-03-22T08:31:31;21.25;;;10.75;;
66384;SDS011;53426;55.872;37.462;2024-03-22T08:33:56;20.40;;;10.07;;
66384;SDS011;53426;55.872;37.462;2024-03-22T08:36:23;22.10;;;9.40;;
66384;SDS011;53426;55.872;37.462;2024-03-22T08:38:49;22.25;;;10.02;;
66384;SDS011;53426;55.872;37.462;2024-03-22T08:41:21;23.85;;;10.55;;
66384;SDS011;53426;55.872;37.462;2024-03-22T08:43:51;21.67;;;10.32;;
66384;SDS011;53426;55.872;37.462;2024-03-22T08:46:17;28.40;;;11.07;;
66384;SDS011;53426;55.872;37.462;2024-03-22T08:48:43;17.73;;;10.90;;
66384;SDS011;53426;55.872;37.462;2024-03-22T08:51:09;20.63;;;10.65;;
66384;SDS011;53426;55.872;37.462;2024-03-22T08:53:35;22.00;;;10.10;;
66384;SDS011;53426;55.872;37.462;2024-03-22T08:56:01;21.80;;;10.63;;
66384;SDS011;53426;55.872;37.462;2024-03-22T08:58:27;20.48;;;10.55;;
66384;SDS011;53426;55.872;37.462;2024-03-22T09:00:52;19.25;;;10.05;;
66384;SDS011;53426;55.872;37.462;2024-03-22T09:03:18;14.75;;;9.50;;
66384;SDS011;53426;55.872;37.462;2024-03-22T09:05:46;17.08;;;9.93;;
66384;SDS011;53426;55.872;37.462;2024-03-22T09:08:12;33.83;;;10.98;;
66384;SDS011;53426;55.872;37.462;2024-03-22T09:10:38;22.90;;;10.32;;
66384;SDS011;53426;55.872;37.462;2024-03-22T09:13:04;19.23;;;10.00;;
66384;SDS011;53426;55.872;37.462;2024-03-22T09:15:30;21.90;;;10.15;;
66384;SDS011;53426;55.872;37.462;2024-03-22T09:17:56;25.80;;;9.93;;
66384;SDS011;53426;55.872;37.462;2024-03-22T09:20:23;18.17;;;9.32;;
66384;SDS011;53426;55.872;37.462;2024-03-22T09:22:49;15.95;;;9.23;;
66384;SDS011;53426;55.872;37.462;2024-03-22T09:25:15;20.48;;;10.32;;
66384;SDS011;53426;55.872;37.462;2024-03-22T09:27:41;19.50;;;10.13;;
66384;SDS011;53426;55.872;37.462;2024-03-22T09:30:07;19.35;;;9.77;;
66384;SDS011;53426;55.872;37.462;2024-03-22T09:32:35;25.45;;;9.70;;
66384;SDS011;53426;55.872;37.462;2024-03-22T09:35:01;18.95;;;9.43;;
66384;SDS011;53426;55.872;37.462;2024-03-22T09:37:27;21.35;;;9.70;;
66384;SDS011;53426;55.872;37.462;2024-03-22T09:39:53;16.45;;;8.45;;
66384;SDS011;53426;55.872;37.462;2024-03-22T09:42:19;26.48;;;9.82;;
66384;SDS011;53426;55.872;37.462;2024-03-22T09:44:50;20.55;;;9.15;;
66384;SDS011;53426;55.872;37.462;2024-03-22T09:47:18;19.98;;;9.07;;
66384;SDS011;53426;55.872;37.462;2024-03-22T09:49:46;24.10;;;8.85;;
66384;SDS011;53426;55.872;37.462;2024-03-22T09:52:14;15.07;;;8.85;;
66384;SDS011;53426;55.872;37.462;2024-03-22T09:54:43;16.38;;;8.68;;
66384;SDS011;53426;55.872;37.462;2024-03-22T09:57:11;22.40;;;8.63;;
66384;SDS011;53426;55.872;37.462;2024-03-22T09:59:41;20.48;;;8.40;;
66384;SDS011;53426;55.872;37.462;2024-03-22T10:02:11;17.95;;;9.23;;
66384;SDS011;53426;55.872;37.462;2024-03-22T10:04:38;21.45;;;8.07;;
66384;SDS011;53426;55.872;37.462;2024-03-22T10:07:06;28.27;;;8.25;;
66384;SDS011;53426;55.872;37.462;2024-03-22T10:09:37;26.08;;;8.32;;
66384;SDS011;53426;55.872;37.462;2024-03-22T10:12:03;23.85;;;7.95;;
66384;SDS011;53426;55.872;37.462;2024-03-22T10:14:30;17.77;;;7.65;;
66384;SDS011;53426;55.872;37.462;2024-03-22T10:16:56;30.27;;;8.77;;
66384;SDS011;53426;55.872;37.462;2024-03-22T10:19:24;21.38;;;7.95;;
66384;SDS011;53426;55.872;37.462;2024-03-22T10:22:00;20.35;;;7.93;;
66384;SDS011;53426;55.872;37.462;2024-03-22T10:24:33;15.40;;;7.15;;
66384;SDS011;53426;55.872;37.462;2024-03-22T10:27:02;15.40;;;7.20;;
66384;SDS011;53426;55.872;37.462;2024-03-22T10:29:28;16.08;;;7.15;;
66384;SDS011;53426;55.872;37.462;2024-03-22T10:38:11;11.60;;;6.93;;
66384;SDS011;53426;55.872;37.462;2024-03-22T10:40:44;13.75;;;6.72;;
66384;SDS011;53426;55.872;37.462;2024-03-22T10:43:12;17.27;;;7.28;;
66384;SDS011;53426;55.872;37.462;2024-03-22T10:45:41;15.93;;;6.82;;
66384;SDS011;53426;55.872;37.462;2024-03-22T10:48:09;16.95;;;7.28;;
66384;SDS011;53426;55.872;37.462;2024-03-22T10:50:41;14.07;;;7.60;;
66384;SDS011;53426;55.872;37.462;2024-03-22T10:53:12;22.15;;;6.85;;
66384;SDS011;53426;55.872;37.462;2024-03-22T10:55:46;15.05;;;6.72;;
66384;SDS011;53426;55.872;37.462;2024-03-22T10:58:21;13.52;;;5.88;;
66384;SDS011;53426;55.872;37.462;2024-03-22T11:00:51;10.60;;;6.35;;
66384;SDS011;53426;55.872;37.462;2024-03-22T11:03:21;18.90;;;6.53;;
66384;SDS011;53426;55.872;37.462;2024-03-22T11:05:55;11.98;;;6.40;;
66384;SDS011;53426;55.872;37.462;2024-03-22T11:08:29;11.98;;;6.43;;
66384;SDS011;53426;55.872;37.462;2024-03-22T11:10:57;14.38;;;6.43;;
66384;SDS011;53426;55.872;37.462;2024-03-22T11:13:46;12.88;;;6.32;;
66384;SDS011;53426;55.872;37.462;2024-03-22T11:16:13;12.02;;;5.45;;
66384;SDS011;53426;55.872;37.462;2024-03-22T11:18:41;15.18;;;6.55;;
66384;SDS011;53426;55.872;37.462;2024-03-22T11:21:38;25.27;;;6.63;;
66384;SDS011;53426;55.872;37.462;2024-03-22T11:24:05;12.93;;;6.18;;
66384;SDS011;53426;55.872;37.462;2024-03-22T11:26:33;14.45;;;6.18;;
66384;SDS011;53426;55.872;37.462;2024-03-22T11:29:01;11.02;;;5.78;;
66384;SDS011;53426;55.872;37.462;2024-03-22T11:31:27;18.92;;;5.78;;
66384;SDS011;53426;55.872;37.462;2024-03-22T11:33:54;13.00;;;5.82;;
66384;SDS011;53426;55.872;37.462;2024-03-22T11:36:20;19.23;;;5.97;;
66384;SDS011;53426;55.872;37.462;2024-03-22T11:38:47;27.17;;;6.50;;
66384;SDS011;53426;55.872;37.462;2024-03-22T11:41:24;18.08;;;7.35;;
66384;SDS011;53426;55.872;37.462;2024-03-22T11:43:54;34.47;;;6.60;;
66384;SDS011;53426;55.872;37.462;2024-03-22T11:46:26;24.80;;;7.60;;
66384;SDS011;53426;55.872;37.462;2024-03-22T11:48:53;17.98;;;6.47;;
66384;SDS011;53426;55.872;37.462;2024-03-22T11:51:20;14.73;;;7.07;;
66384;SDS011;53426;55.872;37.462;2024-03-22T11:53:52;14.52;;;6.40;;
66384;SDS011;53426;55.872;37.462;2024-03-22T11:56:22;14.15;;;6.50;;
66384;SDS011;53426;55.872;37.462;2024-03-22T11:58:49;17.63;;;6.57;;
66384;SDS011;53426;55.872;37.462;2024-03-22T12:01:23;11.90;;;6.73;;
66384;SDS011;53426;55.872;37.462;2024-03-22T12:03:50;12.68;;;6.15;;
66384;SDS011;53426;55.872;37.462;2024-03-22T12:06:16;9.05;;;5.93;;
66384;SDS011;53426;55.872;37.462;2024-03-22T12:08:42;18.38;;;6.07;;
66384;SDS011;53426;55.872;37.462;2024-03-22T12:11:08;15.32;;;6.65;;
66384;SDS011;53426;55.872;37.462;2024-03-22T12:13:54;17.98;;;6.07;;
66384;SDS011;53426;55.872;37.462;2024-03-22T12:16:20;35.47;;;6.40;;
66384;SDS011;53426;55.872;37.462;2024-03-22T12:18:46;30.55;;;6.50;;
66384;SDS011;53426;55.872;37.462;2024-03-22T12:21:11;12.35;;;5.80;;
66384;SDS011;53426;55.872;37.462;2024-03-22T12:23:39;10.18;;;5.47;;
66384;SDS011;53426;55.872;37.462;2024-03-22T12:26:05;21.20;;;6.15;;
66384;SDS011;53426;55.872;37.462;2024-03-22T12:28:32;12.27;;;6.20;;
66384;SDS011;53426;55.872;37.462;2024-03-22T12:30:58;13.38;;;5.38;;
66384;SDS011;53426;55.872;37.462;2024-03-22T12:33:24;18.63;;;5.35;;
66384;SDS011;53426;55.872;37.462;2024-03-22T12:35:50;12.65;;;5.57;;
66384;SDS011;53426;55.872;37.462;2024-03-22T12:38:19;9.65;;;5.18;;
66384;SDS011;53426;55.872;37.462;2024-03-22T12:40:45;11.55;;;5.32;;
66384;SDS011;53426;55.872;37.462;2024-03-22T12:43:11;19.48;;;5.93;;
66384;SDS011;53426;55.872;37.462;2024-03-22T12:45:37;28.20;;;6.53;;
66384;SDS011;53426;55.872;37.462;2024-03-22T12:48:03;22.92;;;5.78;;
66384;SDS011;53426;55.872;37.462;2024-03-22T12:50:30;15.95;;;5.53;;
66384;SDS011;53426;55.872;37.462;2024-03-22T12:52:59;19.90;;;6.22;;
66384;SDS011;53426;55.872;37.462;2024-03-22T12:55:25;23.30;;;6.18;;
66384;SDS011;53426;55.872;37.462;2024-03-22T13:03:56;9.30;;;5.80;;
66384;SDS011;53426;55.872;37.462;2024-03-22T13:06:22;14.63;;;5.53;;
66384;SDS011;53426;55.872;37.462;2024-03-22T13:08:48;7.07;;;4.55;;
66384;SDS011;53426;55.872;37.462;2024-03-22T13:11:14;9.23;;;5.20;;
66384;SDS011;53426;55.872;37.462;2024-03-22T13:13:40;17.15;;;5.28;;
66384;SDS011;53426;55.872;37.462;2024-03-22T13:16:09;10.82;;;5.47;;
66384;SDS011;53426;55.872;37.462;2024-03-22T13:18:41;14.48;;;5.47;;
66384;SDS011;53426;55.872;37.462;2024-03-22T13:21:07;9.75;;;4.97;;
66384;SDS011;53426;55.872;37.462;2024-03-22T13:23:33;12.13;;;5.05;;
66384;SDS011;53426;55.872;37.462;2024-03-22T13:26:06;12.77;;;5.40;;
66384;SDS011;53426;55.872;37.462;2024-03-22T13:28:32;13.13;;;5.50;;
66384;SDS011;53426;55.872;37.462;2024-03-22T13:31:02;12.02;;;5.20;;
66384;SDS011;53426;55.872;37.462;2024-03-22T13:33:34;9.52;;;5.63;;
66384;SDS011;53426;55.872;37.462;2024-03-22T13:36:01;19.58;;;5.88;;
66384;SDS011;53426;55.872;37.462;2024-03-22T13:38:30;13.88;;;5.55;;
66384;SDS011;53426;55.872;37.462;2024-03-22T13:40:57;15.13;;;5.22;;
66384;SDS011;53426;55.872;37.462;2024-03-22T13:43:27;15.18;;;5.38;;
66384;SDS011;53426;55.872;37.462;2024-03-22T13:45:56;22.60;;;6.15;;
66384;SDS011;53426;55.872;37.462;2024-03-22T13:48:23;11.23;;;5.15;;
66384;SDS011;53426;55.872;37.462;2024-03-22T13:50:51;17.35;;;5.35;;
66384;SDS011;53426;55.872;37.462;2024-03-22T13:53:18;11.98;;;5.38;;
66384;SDS011;53426;55.872;37.462;2024-03-22T13:55:44;10.07;;;5.18;;
66384;SDS011;53426;55.872;37.462;2024-03-22T13:58:13;11.23;;;5.68;;
66384;SDS011;53426;55.872;37.462;2024-03-22T14:00:39;27.23;;;6.15;;
66384;SDS011;53426;55.872;37.462;2024-03-22T14:03:27;13.68;;;5.82;;
66384;SDS011;53426;55.872;37.462;2024-03-22T14:05:56;7.53;;;6.40;;
66384;SDS011;53426;55.872;37.462;2024-03-22T14:08:22;19.75;;;5.53;;
66384;SDS011;53426;55.872;37.462;2024-03-22T14:10:48;15.23;;;5.78;;
66384;SDS011;53426;55.872;37.462;2024-03-22T14:13:14;19.40;;;6.13;;
66384;SDS011;53426;55.872;37.462;2024-03-22T14:15:40;10.60;;;5.53;;
66384;SDS011;53426;55.872;37.462;2024-03-22T14:18:06;11.73;;;5.95;;
66384;SDS011;53426;55.872;37.462;2024-03-22T14:20:33;15.85;;;6.28;;
66384;SDS011;53426;55.872;37.462;2024-03-22T14:22:59;13.23;;;6.47;;
66384;SDS011;53426;55.872;37.462;2024-03-22T14:25:25;19.88;;;6.25;;
66384;SDS011;53426;55.872;37.462;2024-03-22T14:27:52;16.52;;;5.90;;
66384;SDS011;53426;55.872;37.462;2024-03-22T14:30:18;12.77;;;5.80;;
66384;SDS011;53426;55.872;37.462;2024-03-22T14:32:45;16.15;;;6.47;;
66384;SDS011;53426;55.872;37.462;2024-03-22T14:35:12;20.38;;;6.35;;
66384;SDS011;53426;55.872;37.462;2024-03-22T14:37:39;9.60;;;5.80;;
66384;SDS011;53426;55.872;37.462;2024-03-22T14:40:05;12.20;;;5.97;;
66384;SDS011;53426;55.872;37.462;2024-03-22T14:42:38;19.27;;;5.47;;
66384;SDS011;53426;55.872;37.462;2024-03-22T14:48:44;22.27;;;7.32;;
66384;SDS011;53426;55.872;37.462;2024-03-22T14:50:58;10.02;;;5.78;;
66384;SDS011;53426;55.872;37.462;2024-03-22T14:53:24;9.50;;;6.55;;
66384;SDS011;53426;55.872;37.462;2024-03-22T14:55:57;13.75;;;6.03;;
66384;SDS011;53426;55.872;37.462;2024-03-22T14:58:31;12.85;;;6.75;;
66384;SDS011;53426;55.872;37.462;2024-03-22T15:00:57;9.40;;;6.30;;
66384;SDS011;53426;55.872;37.462;2024-03-22T15:03:27;14.02;;;6.38;;
66384;SDS011;53426;55.872;37.462;2024-03-22T15:08:41;9.13;;;6.40;;
66384;SDS011;53426;55.872;37.462;2024-03-22T15:11:07;25.98;;;6.80;;
66384;SDS011;53426;55.872;37.462;2024-03-22T15:13:36;23.48;;;6.90;;
66384;SDS011;53426;55.872;37.462;2024-03-22T15:16:02;23.85;;;6.93;;
66384;SDS011;53426;55.872;37.462;2024-03-22T15:18:35;18.60;;;6.97;;
66384;SDS011;53426;55.872;37.462;2024-03-22T15:21:31;16.17;;;6.00;;
66384;SDS011;53426;55.872;37.462;2024-03-22T15:23:58;13.35;;;5.93;;
66384;SDS011;53426;55.872;37.462;2024-03-22T15:26:24;12.88;;;6.22;;
66384;SDS011;53426;55.872;37.462;2024-03-22T15:28:53;14.50;;;6.95;;
66384;SDS011;53426;55.872;37.462;2024-03-22T15:31:19;16.60;;;5.97;;
66384;SDS011;53426;55.872;37.462;2024-03-22T15:33:45;14.75;;;6.05;;
66384;SDS011;53426;55.872;37.462;2024-03-22T15:36:12;13.20;;;5.70;;
66384;SDS011;53426;55.872;37.462;2024-03-22T15:38:44;15.80;;;6.68;;
66384;SDS011;53426;55.872;37.462;2024-03-22T15:41:13;17.08;;;6.35;;
66384;SDS011;53426;55.872;37.462;2024-03-22T15:46:51;19.88;;;6.82;;
66384;SDS011;53426;55.872;37.462;2024-03-22T15:49:30;9.88;;;6.38;;
66384;SDS011;53426;55.872;37.462;2024-03-22T15:52:00;13.35;;;6.85;;
66384;SDS011;53426;55.872;37.462;2024-03-22T15:54:26;23.92;;;8.30;;
66384;SDS011;53426;55.872;37.462;2024-03-22T15:56:56;19.42;;;7.25;;
66384;SDS011;53426;55.872;37.462;2024-03-22T15:59:25;16.85;;;7.10;;
66384;SDS011;53426;55.872;37.462;2024-03-22T16:01:50;25.23;;;7.40;;
66384;SDS011;53426;55.872;37.462;2024-03-22T16:04:16;11.68;;;6.80;;
66384;SDS011;53426;55.872;37.462;2024-03-22T16:06:42;34.15;;;7.15;;
66384;SDS011;53426;55.872;37.462;2024-03-22T16:09:08;14.55;;;7.25;;
66384;SDS011;53426;55.872;37.462;2024-03-22T16:11:36;12.32;;;6.80;;
66384;SDS011;53426;55.872;37.462;2024-03-22T16:14:02;17.27;;;6.45;;
66384;SDS011;53426;55.872;37.462;2024-03-22T16:16:30;13.57;;;6.78;;
66384;SDS011;53426;55.872;37.462;2024-03-22T16:18:59;19.30;;;6.80;;
66384;SDS011;53426;55.872;37.462;2024-03-22T16:21:25;21.13;;;6.70;;
66384;SDS011;53426;55.872;37.462;2024-03-22T16:23:51;19.42;;;6.78;;
66384;SDS011;53426;55.872;37.462;2024-03-22T16:26:17;20.95;;;6.95;;
66384;SDS011;53426;55.872;37.462;2024-03-22T16:28:43;19.88;;;7.43;;
66384;SDS011;53426;55.872;37.462;2024-03-22T16:31:09;15.88;;;7.20;;
66384;SDS011;53426;55.872;37.462;2024-03-22T16:33:35;18.25;;;7.22;;
66384;SDS011;53426;55.872;37.462;2024-03-22T16:36:01;24.55;;;8.23;;
66384;SDS011;53426;55.872;37.462;2024-03-22T16:38:27;13.45;;;7.50;;
66384;SDS011;53426;55.872;37.462;2024-03-22T16:40:55;24.13;;;8.35;;
66384;SDS011;53426;55.872;37.462;2024-03-22T16:43:29;27.25;;;8.63;;
66384;SDS011;53426;55.872;37.462;2024-03-22T16:45:55;16.67;;;8.80;;
66384;SDS011;53426;55.872;37.462;2024-03-22T16:48:24;20.67;;;9.38;;